Time;durP1;ratioP1;P1;durP2;ratioP2;P2;SDS_P1;SDS_P2;PMS_P1;PMS_P2;Temp;Humidity;BMP_temperature;BMP_pressure;BME280_temperature;BME280_humidity;BME280_pressure;Samples;Min_cycle;Max_cycle;Signal;HPM_P1;HPM_P2
2022/04/05 00:01:16;;;;;;;6.00;2.72;;;7.70;99.90;;;;;;5063428;28;20553;-62
2022/04/05 00:03:42;;;;;;;2.95;1.75;;;7.70;99.90;;;;;;5060432;28;20120;-63
2022/04/05 00:06:07;;;;;;;3.47;1.67;;;7.70;99.90;;;;;;5063629;28;20029;-64
2022/04/05 00:08:33;;;;;;;3.53;1.67;;;7.70;99.90;;;;;;5061964;28;20116;-64
2022/04/05 00:10:58;;;;;;;2.35;1.40;;;7.70;99.90;;;;;;5062950;28;20033;-64
2022/04/05 00:13:24;;;;;;;5.35;2.17;;;7.80;99.90;;;;;;5060130;28;20021;-64
2022/04/05 00:15:50;;;;;;;4.63;1.67;;;7.80;99.90;;;;;;5057260;28;20056;-64
2022/04/05 00:18:16;;;;;;;3.10;1.52;;;7.80;99.90;;;;;;5055153;28;20017;-64
2022/04/05 00:20:41;;;;;;;5.72;2.15;;;7.80;99.90;;;;;;5056480;28;20641;-64
2022/04/05 00:23:07;;;;;;;4.45;2.10;;;7.80;99.90;;;;;;5063379;28;20025;-64
2022/04/05 00:25:33;;;;;;;6.53;1.60;;;7.80;99.90;;;;;;5063558;28;20435;-62
2022/04/05 00:27:59;;;;;;;3.83;2.10;;;7.80;99.90;;;;;;5041907;28;20032;-63
2022/04/05 00:30:24;;;;;;;4.88;1.65;;;7.80;99.90;;;;;;5058890;28;20577;-64
2022/04/05 00:32:50;;;;;;;4.70;2.22;;;7.90;99.90;;;;;;5039379;28;20021;-64
2022/04/05 00:35:16;;;;;;;5.90;2.25;;;7.90;99.90;;;;;;5065629;28;20021;-64
2022/04/05 00:37:41;;;;;;;9.20;3.22;;;7.90;99.90;;;;;;5062702;28;20376;-64
2022/04/05 00:40:08;;;;;;;7.30;3.45;;;7.90;99.90;;;;;;5075322;28;20043;-64
2022/04/05 00:42:36;;;;;;;4.80;1.83;;;7.90;99.90;;;;;;5086023;28;20027;-63
2022/04/05 00:45:01;;;;;;;5.60;2.10;;;8.00;99.90;;;;;;5082426;28;20032;-63
2022/04/05 00:47:28;;;;;;;6.38;2.45;;;8.00;99.90;;;;;;5085038;28;20029;-63
2022/04/05 00:49:53;;;;;;;5.55;2.65;;;8.00;99.90;;;;;;5086873;28;20051;-62
2022/04/05 00:52:21;;;;;;;2.58;1.10;;;8.00;99.90;;;;;;5078826;28;20063;-63
2022/04/05 00:54:48;;;;;;;7.75;2.47;;;8.00;99.90;;;;;;5081163;28;20020;-63
2022/04/05 00:57:16;;;;;;;4.35;2.25;;;8.00;99.90;;;;;;5083543;28;20047;-62
2022/04/05 00:59:46;;;;;;;3.13;1.50;;;8.00;99.90;;;;;;5082863;28;20032;-62
2022/04/05 01:02:23;;;;;;;2.27;1.50;;;8.00;99.90;;;;;;5076142;28;20038;-63
2022/04/05 01:04:49;;;;;;;4.05;1.85;;;8.10;99.90;;;;;;5070487;28;20475;-62
2022/04/05 01:07:21;;;;;;;3.20;1.73;;;8.10;99.90;;;;;;5085336;28;20077;-63
2022/04/05 01:09:46;;;;;;;3.75;1.63;;;8.10;99.90;;;;;;5078973;28;20713;-62
2022/04/05 01:12:13;;;;;;;4.22;2.10;;;8.10;99.90;;;;;;5080869;28;20024;-63
2022/04/05 01:14:42;;;;;;;5.20;1.92;;;8.20;99.90;;;;;;5078454;28;20066;-63
2022/04/05 01:17:08;;;;;;;7.65;3.13;;;8.20;99.90;;;;;;5078269;28;20051;-63
2022/04/05 01:19:34;;;;;;;5.20;2.03;;;8.20;99.90;;;;;;5082428;28;20103;-63
2022/04/05 01:22:00;;;;;;;6.05;2.67;;;8.20;99.90;;;;;;5079224;28;20563;-63
2022/04/05 01:24:27;;;;;;;5.95;1.85;;;8.20;99.90;;;;;;5079085;28;20055;-63
2022/04/05 01:26:56;;;;;;;7.30;1.73;;;8.20;99.90;;;;;;5078928;28;20028;-64
2022/04/05 01:29:24;;;;;;;4.75;2.25;;;8.30;99.90;;;;;;5079000;28;20497;-64
2022/04/05 01:32:06;;;;;;;6.68;2.35;;;8.30;99.90;;;;;;5077607;28;20517;-64
2022/04/05 01:34:34;;;;;;;6.25;3.05;;;8.30;99.90;;;;;;5078738;28;20054;-63
2022/04/05 01:37:05;;;;;;;6.22;2.17;;;8.30;99.90;;;;;;5080014;28;20518;-63
2022/04/05 01:39:33;;;;;;;4.03;1.80;;;8.30;99.90;;;;;;5063776;28;20053;-63
2022/04/05 01:41:58;;;;;;;4.90;2.30;;;8.40;99.90;;;;;;5054792;28;20120;-63
2022/04/05 01:44:25;;;;;;;7.03;2.67;;;8.40;99.90;;;;;;5052468;28;20654;-62
2022/04/05 01:46:51;;;;;;;11.45;3.60;;;8.30;99.90;;;;;;5060985;28;20078;-62
2022/04/05 01:49:17;;;;;;;3.10;1.45;;;8.20;99.90;;;;;;5056568;28;20091;-62
2022/04/05 01:51:44;;;;;;;6.75;1.92;;;8.00;99.90;;;;;;5041865;28;20934;-62
2022/04/05 01:54:13;;;;;;;7.45;2.05;;;7.90;99.90;;;;;;5058936;28;20033;-62
2022/04/05 01:56:49;;;;;;;6.68;1.65;;;7.80;99.90;;;;;;5048381;28;20039;-62
2022/04/05 01:59:16;;;;;;;4.28;1.60;;;7.80;99.90;;;;;;5054049;28;20021;-62
2022/04/05 02:01:42;;;;;;;1.80;0.90;;;7.70;99.90;;;;;;5060574;28;20064;-62
2022/04/05 02:04:10;;;;;;;2.78;1.20;;;7.60;99.90;;;;;;5060842;28;20028;-62
2022/04/05 02:06:36;;;;;;;1.95;1.27;;;7.50;99.90;;;;;;5056067;28;20892;-62
2022/04/05 02:09:02;;;;;;;2.00;1.25;;;7.50;99.90;;;;;;5062152;28;20024;-62
2022/04/05 02:11:28;;;;;;;1.60;0.90;;;7.50;99.90;;;;;;5054702;28;20032;-62
2022/04/05 02:13:53;;;;;;;2.40;1.25;;;7.50;99.90;;;;;;5056975;28;20027;-62
2022/04/05 02:16:19;;;;;;;2.17;1.45;;;7.40;99.90;;;;;;5041171;28;20752;-62
2022/04/05 02:18:44;;;;;;;3.92;1.38;;;7.40;99.90;;;;;;5058337;28;20103;-62
2022/04/05 02:21:10;;;;;;;3.38;1.30;;;7.40;99.90;;;;;;5054189;28;20113;-62
2022/04/05 02:23:36;;;;;;;1.10;0.95;;;7.40;99.90;;;;;;5058342;28;20373;-62
2022/04/05 02:26:02;;;;;;;1.70;1.00;;;7.40;99.90;;;;;;5058645;28;20020;-62
2022/04/05 02:28:28;;;;;;;5.18;1.20;;;7.40;99.90;;;;;;5051884;28;20542;-62
2022/04/05 02:30:54;;;;;;;2.00;1.00;;;7.30;99.90;;;;;;5060832;28;20032;-62
2022/04/05 02:33:20;;;;;;;2.72;1.10;;;7.30;99.90;;;;;;5054744;28;20768;-62
2022/04/05 02:35:48;;;;;;;2.28;0.90;;;7.30;99.90;;;;;;5059118;28;20016;-62
2022/04/05 02:38:14;;;;;;;1.10;0.73;;;7.20;99.90;;;;;;5057756;28;20654;-62
2022/04/05 02:40:41;;;;;;;1.70;0.98;;;7.30;99.90;;;;;;5080517;28;20047;-62
2022/04/05 02:43:06;;;;;;;0.70;0.70;;;7.10;99.90;;;;;;5076126;28;20124;-62
2022/04/05 02:45:32;;;;;;;1.10;0.80;;;7.20;99.90;;;;;;5076774;28;20506;-62
2022/04/05 02:47:58;;;;;;;3.10;1.05;;;7.10;99.90;;;;;;5081112;28;20109;-62
2022/04/05 02:50:23;;;;;;;1.05;0.80;;;7.00;99.90;;;;;;5077587;28;20024;-62
2022/04/05 02:52:50;;;;;;;1.75;1.13;;;7.10;99.90;;;;;;5079607;28;20024;-62
2022/04/05 02:55:16;;;;;;;4.85;1.08;;;7.10;99.90;;;;;;5060036;28;20025;-62
2022/04/05 02:57:44;;;;;;;3.63;1.40;;;7.10;99.90;;;;;;5079737;28;20031;-62
2022/04/05 03:00:11;;;;;;;2.15;1.10;;;7.20;99.90;;;;;;5071994;28;20071;-62
2022/04/05 03:02:37;;;;;;;3.00;1.35;;;7.30;99.90;;;;;;5063913;28;20032;-62
2022/04/05 03:05:07;;;;;;;4.15;1.85;;;7.20;99.90;;;;;;5074318;28;20028;-62
2022/04/05 03:07:37;;;;;;;2.20;1.15;;;7.30;99.90;;;;;;5058357;28;20028;-62
2022/04/05 03:10:06;;;;;;;2.25;1.20;;;7.30;99.90;;;;;;5055664;28;20066;-62
2022/04/05 03:12:32;;;;;;;1.92;1.13;;;7.30;99.90;;;;;;5077925;28;20056;-62
2022/04/05 03:14:58;;;;;;;3.15;1.45;;;7.30;99.90;;;;;;5075380;28;20503;-62
2022/04/05 03:17:23;;;;;;;3.50;1.35;;;7.20;99.90;;;;;;5061658;28;20073;-62
2022/04/05 03:19:49;;;;;;;1.88;1.27;;;7.40;99.90;;;;;;5073610;28;20464;-62
2022/04/05 03:22:16;;;;;;;3.03;1.45;;;7.30;99.90;;;;;;5077746;28;20107;-62
2022/04/05 03:24:42;;;;;;;2.50;1.10;;;7.30;99.90;;;;;;5078871;28;20024;-62
2022/04/05 03:27:08;;;;;;;3.45;1.38;;;7.30;99.90;;;;;;5073127;28;20085;-62
2022/04/05 03:29:34;;;;;;;2.70;1.38;;;7.30;99.90;;;;;;5076877;28;20380;-62
2022/04/05 03:32:00;;;;;;;2.17;1.05;;;7.20;99.90;;;;;;5071981;28;20479;-62
2022/04/05 03:34:25;;;;;;;4.00;1.67;;;7.30;99.90;;;;;;5072317;28;20028;-62
2022/04/05 03:36:51;;;;;;;2.95;1.20;;;7.40;99.90;;;;;;5066145;28;20035;-62
2022/04/05 03:39:16;;;;;;;3.38;1.73;;;7.40;99.90;;;;;;5075427;28;20056;-63
2022/04/05 03:41:44;;;;;;;1.13;1.00;;;7.40;99.90;;;;;;5061753;28;20114;-63
2022/04/05 03:44:10;;;;;;;4.00;1.40;;;7.40;99.90;;;;;;5073848;28;20031;-62
2022/04/05 03:46:36;;;;;;;1.60;1.17;;;7.40;99.90;;;;;;5076748;28;20044;-62
2022/04/05 03:49:02;;;;;;;2.97;1.48;;;7.40;99.90;;;;;;5056758;28;20159;-62
2022/04/05 03:51:28;;;;;;;3.80;1.55;;;7.30;99.90;;;;;;5075765;28;20514;-62
2022/04/05 03:53:54;;;;;;;4.43;1.52;;;7.30;99.90;;;;;;5074790;28;20024;-62
2022/04/05 03:56:20;;;;;;;3.00;1.35;;;7.40;99.90;;;;;;5075057;28;20037;-62
2022/04/05 03:58:47;;;;;;;3.20;1.33;;;7.40;99.90;;;;;;5076078;28;20020;-62
2022/04/05 04:01:12;;;;;;;2.15;1.05;;;7.50;99.90;;;;;;5076984;28;20035;-62
2022/04/05 04:03:38;;;;;;;3.78;1.27;;;7.50;99.90;;;;;;5076480;28;20035;-62
2022/04/05 04:06:03;;;;;;;3.70;1.40;;;7.50;99.90;;;;;;5080451;28;20574;-62
2022/04/05 04:08:29;;;;;;;4.40;1.88;;;7.50;99.90;;;;;;5074024;28;20028;-62
2022/04/05 04:10:55;;;;;;;6.43;1.77;;;7.40;99.90;;;;;;5078050;28;20036;-62
2022/04/05 04:13:20;;;;;;;3.10;1.70;;;7.40;99.90;;;;;;5073740;28;20048;-62
2022/04/05 04:15:46;;;;;;;3.22;1.88;;;7.40;99.90;;;;;;5075250;28;20062;-62
2022/04/05 04:18:12;;;;;;;3.13;1.60;;;7.40;99.90;;;;;;5053876;28;20024;-62
2022/04/05 04:20:38;;;;;;;4.10;1.83;;;7.40;99.90;;;;;;5073778;28;20040;-62
2022/04/05 04:23:05;;;;;;;9.48;2.25;;;7.30;99.90;;;;;;5078260;28;20103;-62
2022/04/05 04:25:31;;;;;;;4.38;1.52;;;7.40;99.90;;;;;;5075687;28;20032;-62
2022/04/05 04:27:57;;;;;;;1.92;1.15;;;7.30;99.90;;;;;;5079180;28;20028;-62
2022/04/05 04:30:23;;;;;;;5.82;1.92;;;7.40;99.90;;;;;;5066556;28;20032;-62
2022/04/05 04:32:49;;;;;;;5.53;2.28;;;7.30;99.90;;;;;;5062903;28;20027;-62
2022/04/05 04:35:14;;;;;;;4.50;1.98;;;7.30;99.90;;;;;;5072477;28;20031;-62
2022/04/05 04:37:40;;;;;;;2.80;1.27;;;7.40;99.90;;;;;;5058925;28;20039;-62
2022/04/05 04:40:07;;;;;;;4.28;1.60;;;7.50;99.90;;;;;;5060134;28;20055;-63
2022/04/05 04:42:35;;;;;;;6.57;1.75;;;7.50;99.90;;;;;;5061476;28;20055;-63
2022/04/05 04:45:01;;;;;;;4.30;1.98;;;7.50;99.90;;;;;;5064261;28;20035;-63
2022/04/05 04:47:27;;;;;;;3.22;1.63;;;7.50;99.90;;;;;;5059480;28;20108;-63
2022/04/05 04:49:53;;;;;;;5.03;2.15;;;7.40;99.90;;;;;;5061084;28;20168;-63
2022/04/05 04:52:18;;;;;;;5.88;3.15;;;7.40;99.90;;;;;;5058954;28;20090;-63
2022/04/05 04:54:44;;;;;;;8.07;2.28;;;7.40;99.90;;;;;;5062577;28;20111;-62
2022/04/05 04:57:09;;;;;;;6.72;1.73;;;7.50;99.90;;;;;;5059398;28;20028;-63
2022/04/05 04:59:35;;;;;;;3.60;1.98;;;7.50;99.90;;;;;;5060470;28;20103;-62
2022/04/05 05:02:01;;;;;;;5.50;2.28;;;7.40;99.90;;;;;;5051064;28;20481;-62
2022/04/05 05:04:26;;;;;;;4.95;2.47;;;7.50;99.90;;;;;;5038740;28;20033;-63
2022/04/05 05:06:53;;;;;;;7.43;2.83;;;7.50;99.90;;;;;;5055227;28;20028;-63
2022/04/05 05:09:19;;;;;;;8.55;3.03;;;7.50;99.90;;;;;;5055314;28;20032;-63
2022/04/05 05:11:45;;;;;;;4.72;2.05;;;7.60;99.90;;;;;;5058889;28;20102;-63
2022/04/05 05:14:11;;;;;;;3.38;1.50;;;7.60;99.90;;;;;;5040937;28;20111;-63
2022/04/05 05:16:36;;;;;;;5.65;2.80;;;7.60;99.90;;;;;;5059875;28;20470;-63
2022/04/05 05:19:03;;;;;;;6.78;2.60;;;7.50;99.90;;;;;;5054535;28;20025;-63
2022/04/05 05:21:28;;;;;;;9.57;2.97;;;7.60;99.90;;;;;;5033636;28;20048;-63
2022/04/05 05:23:54;;;;;;;6.95;3.28;;;7.60;99.90;;;;;;5059887;28;20032;-63
2022/04/05 05:26:20;;;;;;;7.95;1.85;;;7.60;99.90;;;;;;5062050;28;20056;-63
2022/04/05 05:28:45;;;;;;;6.25;2.55;;;7.60;99.90;;;;;;5063133;28;20025;-63
2022/04/05 05:31:11;;;;;;;7.40;2.72;;;7.70;99.90;;;;;;5050420;28;20036;-63
2022/04/05 05:33:37;;;;;;;4.65;1.98;;;7.70;99.90;;;;;;5059832;28;20031;-63
2022/04/05 05:36:03;;;;;;;8.73;2.55;;;7.70;99.90;;;;;;5040894;28;20392;-63
2022/04/05 05:38:29;;;;;;;5.30;2.13;;;7.70;99.90;;;;;;5056517;28;20077;-63
2022/04/05 05:40:54;;;;;;;5.03;2.22;;;7.70;99.90;;;;;;5044481;28;20036;-63
2022/04/05 05:43:22;;;;;;;4.88;2.72;;;7.70;99.90;;;;;;5055462;28;20078;-63
2022/04/05 05:45:48;;;;;;;5.13;2.15;;;7.70;99.90;;;;;;5058922;28;20024;-63
2022/04/05 05:48:14;;;;;;;7.65;2.63;;;7.70;99.90;;;;;;5060041;28;20536;-63
2022/04/05 05:50:39;;;;;;;8.75;3.40;;;7.70;99.90;;;;;;5039279;28;20033;-63
2022/04/05 05:53:05;;;;;;;2.72;1.75;;;7.80;99.90;;;;;;5056329;28;20766;-63
2022/04/05 05:55:32;;;;;;;6.22;2.42;;;7.80;99.90;;;;;;5055209;28;20024;-63
2022/04/05 05:57:57;;;;;;;2.17;1.20;;;7.80;99.90;;;;;;5054872;28;20040;-62
2022/04/05 06:00:23;;;;;;;4.32;1.80;;;7.80;99.90;;;;;;5047686;28;20024;-63
2022/04/05 06:02:54;;;;;;;4.82;2.58;;;7.70;99.90;;;;;;5052795;28;20158;-62
2022/04/05 06:05:20;;;;;;;12.82;3.58;;;7.80;99.90;;;;;;5051158;28;20025;-62
2022/04/05 06:07:45;;;;;;;7.68;2.40;;;7.80;99.90;;;;;;5056619;28;20036;-62
2022/04/05 06:10:13;;;;;;;6.00;2.55;;;7.70;99.90;;;;;;5057027;28;20047;-63
2022/04/05 06:12:41;;;;;;;12.25;3.03;;;7.90;99.90;;;;;;5054845;28;20021;-62
2022/04/05 06:15:09;;;;;;;8.32;3.33;;;7.90;99.90;;;;;;5059178;28;20106;-62
2022/04/05 06:17:42;;;;;;;6.47;3.38;;;8.00;99.90;;;;;;5061931;28;20028;-62
2022/04/05 06:20:09;;;;;;;9.43;3.30;;;8.00;99.90;;;;;;5053833;28;20365;-62
2022/04/05 06:22:43;;;;;;;5.55;2.10;;;7.90;99.90;;;;;;5057563;28;20029;-63
2022/04/05 06:25:11;;;;;;;12.05;4.43;;;8.00;99.90;;;;;;5060230;28;20026;-63
2022/04/05 06:27:37;;;;;;;8.07;2.33;;;8.00;99.90;;;;;;5056400;28;20087;-63
2022/04/05 06:30:04;;;;;;;10.45;3.53;;;8.00;99.90;;;;;;5057243;28;20462;-63
2022/04/05 06:32:30;;;;;;;5.75;2.55;;;8.10;99.90;;;;;;5054242;28;20105;-63
2022/04/05 06:34:56;;;;;;;8.27;3.30;;;8.00;99.90;;;;;;5048583;28;20568;-62
2022/04/05 06:37:21;;;;;;;6.78;2.78;;;8.00;99.90;;;;;;5062165;28;20051;-62
2022/04/05 06:39:48;;;;;;;7.60;2.92;;;8.10;99.90;;;;;;5052007;28;20459;-62
2022/04/05 06:42:14;;;;;;;7.28;3.05;;;8.10;99.90;;;;;;5079422;28;20378;-62
2022/04/05 06:44:39;;;;;;;5.55;2.60;;;8.20;99.90;;;;;;5057735;28;20029;-62
2022/04/05 06:47:06;;;;;;;5.25;2.58;;;8.20;99.90;;;;;;5080361;28;20111;-62
2022/04/05 06:49:32;;;;;;;5.88;3.00;;;8.20;99.90;;;;;;5080779;28;20096;-62
2022/04/05 06:51:58;;;;;;;7.03;2.92;;;8.20;99.90;;;;;;5077424;28;20016;-62
2022/04/05 06:54:24;;;;;;;11.77;4.10;;;8.20;99.90;;;;;;5081312;28;20058;-62
2022/04/05 06:56:49;;;;;;;5.40;2.30;;;8.00;99.90;;;;;;5074557;28;20526;-62
2022/04/05 06:59:15;;;;;;;0.60;0.60;;;8.10;99.90;;;;;;5078926;28;20105;-64
2022/04/05 07:01:40;;;;;;;0.50;0.50;;;8.10;99.90;;;;;;5073565;28;20035;-62
2022/04/05 07:04:06;;;;;;;0.80;0.80;;;8.20;99.90;;;;;;5074201;28;20036;-63
2022/04/05 07:06:32;;;;;;;0.70;0.70;;;8.20;99.90;;;;;;5075034;28;20034;-63
2022/04/05 07:08:58;;;;;;;0.50;0.50;;;8.20;99.90;;;;;;5075008;28;20089;-63
2022/04/05 07:11:24;;;;;;;0.82;0.82;;;8.20;99.90;;;;;;5079121;28;20028;-63
2022/04/05 07:13:51;;;;;;;0.60;0.60;;;8.10;99.90;;;;;;5071477;28;20865;-63
2022/04/05 07:16:17;;;;;;;1.95;1.33;;;8.30;99.90;;;;;;5071957;28;20077;-62
2022/04/05 07:18:43;;;;;;;0.60;0.60;;;8.30;99.90;;;;;;5061259;28;20031;-63
2022/04/05 07:21:09;;;;;;;0.60;0.60;;;8.40;99.90;;;;;;5069759;28;20020;-62
2022/04/05 07:23:36;;;;;;;0.63;0.63;;;8.40;99.90;;;;;;5063570;28;20054;-63
2022/04/05 07:26:02;;;;;;;0.60;0.60;;;8.60;99.90;;;;;;5071174;28;20387;-64
2022/04/05 07:28:28;;;;;;;0.50;0.50;;;8.50;99.90;;;;;;5076867;28;20040;-64
2022/04/05 07:30:53;;;;;;;0.60;0.60;;;8.40;99.90;;;;;;5071786;28;20032;-64
2022/04/05 07:33:19;;;;;;;1.75;1.05;;;8.50;99.90;;;;;;5067944;28;20028;-64
2022/04/05 07:35:45;;;;;;;0.50;0.50;;;8.50;99.90;;;;;;5075689;28;20648;-64
2022/04/05 07:38:12;;;;;;;0.65;0.65;;;8.50;99.90;;;;;;5056715;28;20688;-63
2022/04/05 07:40:52;;;;;;;0.70;0.70;;;8.60;99.90;;;;;;5052990;28;20029;-63
2022/04/05 07:43:23;;;;;;;0.50;0.50;;;8.60;99.90;;;;;;5057733;28;20052;-63
2022/04/05 07:45:50;;;;;;;0.50;0.50;;;8.70;99.90;;;;;;5056438;28;20028;-64
2022/04/05 07:48:17;;;;;;;0.50;0.50;;;8.70;99.90;;;;;;5040580;28;20083;-62
2022/04/05 07:50:42;;;;;;;0.80;0.80;;;8.70;99.90;;;;;;5042936;28;20029;-63
2022/04/05 07:53:08;;;;;;;0.70;0.70;;;8.90;99.90;;;;;;5056639;28;20397;-62
2022/04/05 07:55:34;;;;;;;0.90;0.90;;;8.90;99.90;;;;;;5053294;28;20045;-62
2022/04/05 07:57:59;;;;;;;1.50;1.17;;;8.90;99.90;;;;;;5056883;28;20541;-62
2022/04/05 08:00:26;;;;;;;1.60;1.35;;;8.90;99.90;;;;;;5052504;28;20036;-62
2022/04/05 08:02:52;;;;;;;0.60;0.60;;;8.90;99.90;;;;;;5057263;28;20024;-62
2022/04/05 08:05:18;;;;;;;1.25;1.15;;;9.00;99.90;;;;;;5060370;28;20017;-63
2022/04/05 08:07:44;;;;;;;1.10;1.00;;;9.10;99.90;;;;;;5067025;28;20036;-62
2022/04/05 08:10:10;;;;;;;3.33;1.73;;;9.20;99.90;;;;;;5054360;28;20037;-63
2022/04/05 08:12:43;;;;;;;0.63;0.63;;;9.20;99.90;;;;;;5052833;28;20520;-62
2022/04/05 08:15:10;;;;;;;2.13;1.77;;;9.30;99.90;;;;;;5059884;28;20075;-63
2022/04/05 08:17:36;;;;;;;0.63;0.63;;;9.30;99.90;;;;;;5042103;28;20025;-62
2022/04/05 08:20:02;;;;;;;1.00;0.93;;;9.30;99.90;;;;;;5060444;28;20128;-63
2022/04/05 08:22:28;;;;;;;1.60;1.50;;;9.40;99.90;;;;;;5042269;28;20602;-63
2022/04/05 08:24:53;;;;;;;2.25;1.80;;;9.50;99.90;;;;;;5054268;28;20032;-63
2022/04/05 08:27:19;;;;;;;2.15;1.65;;;9.60;99.90;;;;;;5052766;28;20029;-64
2022/04/05 08:29:45;;;;;;;1.92;1.45;;;9.60;99.90;;;;;;5038540;28;20028;-64
2022/04/05 08:32:10;;;;;;;0.93;0.80;;;9.60;99.90;;;;;;5056648;28;20029;-64
2022/04/05 08:34:41;;;;;;;1.67;1.42;;;9.70;99.90;;;;;;5044773;28;20694;-63
2022/04/05 08:37:08;;;;;;;1.48;1.23;;;9.70;99.90;;;;;;5042987;28;20582;-63
2022/04/05 08:39:34;;;;;;;1.67;1.38;;;9.70;99.90;;;;;;5052789;28;20048;-64
2022/04/05 08:42:03;;;;;;;4.28;2.20;;;9.80;99.90;;;;;;5039245;28;20808;-64
2022/04/05 08:44:29;;;;;;;0.77;0.77;;;9.70;99.90;;;;;;5044330;28;20036;-63
2022/04/05 08:46:55;;;;;;;2.47;1.65;;;9.80;99.90;;;;;;5064905;28;20515;-63
2022/04/05 08:49:22;;;;;;;3.17;1.65;;;9.80;99.90;;;;;;5041471;28;20503;-63
2022/04/05 08:51:48;;;;;;;2.53;2.13;;;9.80;99.90;;;;;;5055494;28;20067;-63
2022/04/05 08:54:14;;;;;;;1.38;1.20;;;9.80;99.90;;;;;;5061891;28;20025;-63
2022/04/05 08:56:40;;;;;;;3.35;1.92;;;9.80;99.90;;;;;;5053099;28;20078;-62
2022/04/05 08:59:05;;;;;;;1.15;0.80;;;9.80;99.90;;;;;;5041259;28;20032;-63
2022/04/05 09:01:32;;;;;;;1.20;1.08;;;9.80;99.90;;;;;;5056959;28;20472;-63
2022/04/05 09:03:58;;;;;;;0.70;0.70;;;9.80;99.90;;;;;;5042147;28;20040;-63
2022/04/05 09:06:31;;;;;;;1.20;1.10;;;9.80;99.90;;;;;;5062502;28;20029;-63
2022/04/05 09:09:14;;;;;;;1.88;1.50;;;9.90;99.90;;;;;;5056900;28;20028;-64
2022/04/05 09:11:59;;;;;;;2.55;1.90;;;10.00;99.90;;;;;;5055830;28;20107;-62
2022/04/05 09:14:30;;;;;;;0.50;0.50;;;10.20;99.90;;;;;;5040220;28;20385;-63
2022/04/05 09:17:06;;;;;;;1.13;1.00;;;10.10;99.90;;;;;;5057128;28;20056;-64
2022/04/05 09:19:48;;;;;;;1.08;1.00;;;10.10;99.90;;;;;;5042478;28;20555;-62
2022/04/05 09:22:15;;;;;;;1.55;1.13;;;10.30;99.90;;;;;;5052911;28;20076;-63
2022/04/05 09:24:45;;;;;;;0.90;0.82;;;10.30;99.90;;;;;;5060747;28;20030;-63
2022/04/05 09:27:11;;;;;;;0.60;0.60;;;10.50;99.90;;;;;;5056524;28;20031;-63
2022/04/05 09:29:41;;;;;;;0.80;0.80;;;10.90;99.90;;;;;;5058787;28;20049;-63
2022/04/05 09:32:07;;;;;;;1.05;0.93;;;10.90;99.90;;;;;;5058484;28;20039;-64
2022/04/05 09:34:46;;;;;;;2.00;1.58;;;10.90;99.90;;;;;;5054169;28;20041;-63
2022/04/05 09:37:12;;;;;;;0.85;0.77;;;10.90;99.90;;;;;;5037285;28;20032;-64
2022/04/05 09:39:38;;;;;;;2.83;1.48;;;11.10;99.90;;;;;;5053459;28;20072;-64
2022/04/05 09:42:10;;;;;;;5.25;1.35;;;11.10;99.90;;;;;;5080790;28;20497;-62
2022/04/05 09:44:39;;;;;;;4.07;2.10;;;11.30;99.90;;;;;;5064328;28;20138;-63
2022/04/05 09:47:14;;;;;;;2.38;1.85;;;11.40;99.90;;;;;;5079721;28;20759;-63
2022/04/05 09:49:44;;;;;;;0.82;0.80;;;11.10;99.90;;;;;;5081249;28;20459;-63
2022/04/05 09:52:21;;;;;;;0.93;0.85;;;10.90;99.90;;;;;;5079108;28;20051;-63
2022/04/05 09:54:47;;;;;;;0.80;0.80;;;10.90;99.90;;;;;;5071013;28;20391;-63
2022/04/05 09:57:13;;;;;;;0.70;0.70;;;11.00;99.90;;;;;;5076043;28;20028;-63
2022/04/05 09:59:43;;;;;;;1.65;1.42;;;10.80;99.90;;;;;;5080396;28;20095;-63
2022/04/05 10:02:11;;;;;;;0.80;0.77;;;10.80;99.90;;;;;;5070742;28;20036;-63
2022/04/05 10:05:09;;;;;;;2.08;1.60;;;11.20;99.90;;;;;;5060814;28;20020;-63
2022/04/05 10:07:36;;;;;;;0.77;0.75;;;11.40;99.90;;;;;;5059514;28;20032;-63
2022/04/05 10:10:06;;;;;;;1.40;1.02;;;11.50;99.90;;;;;;5079645;28;20035;-63
2022/04/05 10:12:32;;;;;;;2.22;1.45;;;11.10;99.90;;;;;;5057777;28;20549;-63
2022/04/05 10:14:59;;;;;;;2.22;1.63;;;11.00;99.90;;;;;;5077248;28;20039;-63
2022/04/05 10:17:26;;;;;;;2.15;1.35;;;11.00;99.90;;;;;;5073316;28;20020;-63
2022/04/05 10:19:55;;;;;;;1.40;1.30;;;11.00;99.90;;;;;;5060741;28;20764;-63
2022/04/05 10:22:22;;;;;;;1.80;1.48;;;10.90;99.90;;;;;;5075030;28;20399;-63
2022/04/05 10:24:52;;;;;;;2.08;1.63;;;10.80;99.90;;;;;;5074865;28;20081;-63
2022/04/05 10:27:22;;;;;;;2.65;1.63;;;10.80;99.90;;;;;;5072318;28;20120;-63
2022/04/05 10:30:06;;;;;;;4.75;2.20;;;10.90;99.90;;;;;;5062465;28;20397;-63
2022/04/05 10:32:37;;;;;;;1.42;1.30;;;10.80;99.90;;;;;;5070117;28;20118;-63
2022/04/05 10:35:08;;;;;;;1.15;1.05;;;10.70;99.90;;;;;;5077219;28;20020;-63
2022/04/05 10:37:39;;;;;;;1.35;1.25;;;10.70;99.90;;;;;;5075565;28;20060;-63
2022/04/05 10:40:10;;;;;;;;;;;10.60;99.90;;;;;;5061880;28;20148;-63
2022/04/05 10:42:46;;;;;;;1.15;0.93;;;10.70;99.90;;;;;;5057664;28;20314;-63
2022/04/05 10:45:21;;;;;;;2.92;2.15;;;10.70;99.90;;;;;;5059853;28;20029;-63
2022/04/05 10:48:10;;;;;;;2.45;1.13;;;10.60;99.90;;;;;;5062817;28;20025;-63
2022/04/05 10:50:35;;;;;;;1.75;1.30;;;10.70;99.90;;;;;;5059166;28;20063;-63
2022/04/05 10:53:13;;;;;;;1.70;1.42;;;10.70;99.90;;;;;;5058575;28;20020;-63
2022/04/05 10:56:03;;;;;;;1.48;1.13;;;10.70;99.90;;;;;;5060501;28;20032;-63
2022/04/05 10:58:36;;;;;;;1.10;1.02;;;10.90;99.90;;;;;;5054664;28;20108;-63
2022/04/05 11:01:19;;;;;;;2.75;1.40;;;11.00;99.90;;;;;;5056940;28;20856;-63
2022/04/05 11:04:09;;;;;;;2.58;1.48;;;11.00;99.90;;;;;;5051029;28;20550;-63
2022/04/05 11:07:00;;;;;;;1.23;1.10;;;11.10;99.90;;;;;;5056077;28;20025;-63
2022/04/05 11:09:44;;;;;;;1.88;1.30;;;11.40;99.90;;;;;;5055260;28;20539;-63
2022/04/05 11:12:21;;;;;;;1.58;1.30;;;11.20;99.90;;;;;;5057074;28;20033;-63
2022/04/05 11:14:51;;;;;;;1.20;1.10;;;11.10;99.90;;;;;;5056444;28;20074;-63
2022/04/05 11:17:20;;;;;;;1.27;1.15;;;11.00;99.90;;;;;;5034548;28;20124;-63
2022/04/05 11:19:51;;;;;;;5.15;2.95;;;11.00;99.90;;;;;;5054176;28;20450;-63
2022/04/05 11:22:20;;;;;;;1.70;1.35;;;10.90;99.90;;;;;;5051975;28;20055;-63
2022/04/05 11:25:29;;;;;;;1.83;1.35;;;10.90;99.90;;;;;;5056059;28;20042;-63
2022/04/05 11:27:55;;;;;;;1.52;1.05;;;10.90;99.90;;;;;;5014768;28;20044;-63
2022/04/05 11:30:27;;;;;;;1.60;1.25;;;11.20;99.90;;;;;;5056117;28;20079;-63
2022/04/05 11:33:19;;;;;;;2.30;2.05;;;11.30;99.90;;;;;;5052387;28;20754;-63
2022/04/05 11:35:46;;;;;;;1.27;1.05;;;11.30;99.90;;;;;;5053007;28;20061;-63
2022/04/05 11:38:27;;;;;;;1.95;1.73;;;11.10;99.90;;;;;;5053823;28;20116;-63
2022/04/05 11:41:02;;;;;;;1.38;1.02;;;11.20;99.90;;;;;;5052958;28;20029;-63
2022/04/05 11:43:35;;;;;;;1.40;1.30;;;11.10;99.90;;;;;;5057913;28;20021;-63
2022/04/05 11:46:09;;;;;;;1.27;1.10;;;11.00;99.90;;;;;;5058621;28;20478;-63
2022/04/05 11:48:40;;;;;;;3.35;2.08;;;10.80;99.90;;;;;;5054168;28;20396;-63
2022/04/05 11:51:09;;;;;;;0.82;0.82;;;10.90;99.90;;;;;;5055250;28;20021;-63
2022/04/05 11:53:35;;;;;;;1.08;0.85;;;10.80;99.90;;;;;;5057238;28;20017;-63
2022/04/05 11:56:17;;;;;;;1.77;1.00;;;10.80;99.90;;;;;;5058556;28;20036;-63
2022/04/05 11:58:53;;;;;;;1.55;1.20;;;10.70;99.90;;;;;;5051486;28;20028;-63
2022/04/05 12:01:26;;;;;;;0.50;0.50;;;10.60;99.90;;;;;;5058604;28;20027;-63
2022/04/05 12:03:57;;;;;;;1.17;1.00;;;10.60;99.90;;;;;;5056008;28;20033;-63
2022/04/05 12:06:27;;;;;;;1.65;1.23;;;10.60;99.90;;;;;;5057869;28;20133;-63
2022/04/05 12:08:54;;;;;;;1.83;1.08;;;10.60;99.90;;;;;;5054266;28;20021;-63
2022/04/05 12:11:22;;;;;;;1.20;0.98;;;10.50;99.90;;;;;;5053809;28;20458;-63
2022/04/05 12:14:02;;;;;;;2.45;1.52;;;10.60;99.90;;;;;;5060829;28;20680;-63
2022/04/05 12:16:48;;;;;;;0.63;0.63;;;11.00;99.90;;;;;;5052904;28;20107;-63
2022/04/05 12:19:22;;;;;;;1.67;1.38;;;11.40;99.90;;;;;;5046763;28;20111;-63
2022/04/05 12:21:57;;;;;;;0.73;0.73;;;11.50;99.90;;;;;;5050986;28;20068;-63
2022/04/05 12:24:24;;;;;;;0.95;0.88;;;11.50;99.90;;;;;;5052358;28;20420;-63
2022/04/05 12:26:49;;;;;;;0.60;0.60;;;11.50;99.90;;;;;;5053563;28;20510;-63
2022/04/05 12:29:15;;;;;;;1.58;1.42;;;11.50;99.90;;;;;;5040717;28;20050;-63
2022/04/05 12:31:41;;;;;;;0.82;0.82;;;11.60;99.90;;;;;;5051994;28;20280;-63
2022/04/05 12:34:13;;;;;;;4.15;1.35;;;11.40;99.90;;;;;;5059636;28;20020;-64
2022/04/05 12:36:56;;;;;;;2.03;1.55;;;11.40;99.90;;;;;;5039490;28;20043;-64
2022/04/05 12:39:26;;;;;;;1.75;1.10;;;11.40;99.90;;;;;;5054902;28;20403;-64
2022/04/05 12:41:57;;;;;;;1.40;1.25;;;11.40;99.90;;;;;;5038049;28;20028;-64
2022/04/05 12:44:28;;;;;;;1.60;1.20;;;11.70;99.90;;;;;;5044035;28;20066;-64
2022/04/05 12:47:07;;;;;;;1.00;0.85;;;12.00;99.90;;;;;;5060051;28;20560;-64
2022/04/05 12:49:42;;;;;;;0.57;0.57;;;12.40;99.90;;;;;;5040684;28;20039;-64
2022/04/05 12:52:14;;;;;;;0.57;0.57;;;12.50;99.90;;;;;;5033469;28;20025;-64
2022/04/05 12:55:00;;;;;;;0.40;0.40;;;12.50;99.90;;;;;;5055633;28;20021;-64
2022/04/05 12:57:45;;;;;;;0.50;0.50;;;12.60;99.90;;;;;;5053775;28;20052;-64
2022/04/05 13:00:30;;;;;;;0.80;0.80;;;12.10;99.90;;;;;;5055083;28;20061;-64
2022/04/05 13:03:10;;;;;;;1.02;0.93;;;12.00;99.90;;;;;;5056961;28;20028;-64